createdAt,value
2019-03-21T00:01:01.957Z,10.20
2019-03-21T00:03:30.553Z,10.10
2019-03-21T00:05:59.146Z,10.10
2019-03-21T00:08:27.733Z,10.10
2019-03-21T00:11:11.174Z,10.10
2019-03-21T00:13:39.768Z,10.10
2019-03-21T00:16:13.520Z,10.00
2019-03-21T00:18:41.660Z,10.00
2019-03-21T00:21:10.225Z,10.00
2019-03-21T00:23:38.826Z,10.00
2019-03-21T00:26:07.401Z,9.90
2019-03-21T00:28:36.013Z,9.80
2019-03-21T00:31:04.596Z,9.90
2019-03-21T00:33:33.243Z,9.80
2019-03-21T00:36:01.765Z,9.80
2019-03-21T00:38:30.346Z,9.80
2019-03-21T00:40:58.942Z,9.80
2019-03-21T00:43:27.512Z,9.80
2019-03-21T00:45:56.126Z,9.80
2019-03-21T00:48:24.709Z,9.80
2019-03-21T00:50:53.281Z,9.70
2019-03-21T00:53:21.854Z,9.70
2019-03-21T00:55:54.617Z,9.80
2019-03-21T00:58:23.193Z,9.80
2019-03-21T01:01:02.714Z,9.80
2019-03-21T01:03:31.346Z,9.80
2019-03-21T01:05:59.943Z,9.80
2019-03-21T01:08:28.596Z,9.80
2019-03-21T01:10:57.200Z,9.70
2019-03-21T01:13:31.755Z,9.80
2019-03-21T01:16:00.423Z,9.70
2019-03-21T01:18:28.990Z,9.70
2019-03-21T01:20:57.579Z,9.70
2019-03-21T01:23:26.136Z,9.70
2019-03-21T01:26:00.533Z,9.70
2019-03-21T01:28:29.036Z,9.70
2019-03-21T01:30:57.641Z,9.60
2019-03-21T01:33:26.202Z,9.70
2019-03-21T01:35:56.342Z,9.70
2019-03-21T01:38:24.909Z,9.70
2019-03-21T01:41:12.973Z,9.60
2019-03-21T01:43:41.675Z,9.60
2019-03-21T01:46:13.081Z,9.60
2019-03-21T01:48:41.647Z,9.60
2019-03-21T01:51:10.249Z,9.60
2019-03-21T01:53:38.883Z,9.60
2019-03-21T01:56:07.529Z,9.60
2019-03-21T01:58:36.102Z,9.60
2019-03-21T02:01:04.762Z,9.70
2019-03-21T02:03:33.333Z,9.70
2019-03-21T02:06:01.940Z,9.70
2019-03-21T02:08:30.495Z,9.70
2019-03-21T02:10:59.093Z,9.70
2019-03-21T02:13:27.657Z,9.60
2019-03-21T02:15:59.202Z,9.60
2019-03-21T02:18:26.495Z,9.60
2019-03-21T02:20:55.077Z,9.60
2019-03-21T02:23:24.214Z,9.60
2019-03-21T02:25:52.815Z,9.60
2019-03-21T02:28:21.410Z,9.60
2019-03-21T02:30:51.512Z,9.60
2019-03-21T02:33:34.349Z,9.50
2019-03-21T02:36:06.002Z,9.50
2019-03-21T02:38:36.122Z,9.50
2019-03-21T02:41:08.154Z,9.50
2019-03-21T02:43:37.188Z,9.50
2019-03-21T02:46:05.796Z,9.50
2019-03-21T02:48:34.387Z,9.50
2019-03-21T02:51:02.979Z,9.50
2019-03-21T02:53:31.563Z,9.60
2019-03-21T02:56:00.164Z,9.60
2019-03-21T02:58:28.728Z,9.60
2019-03-21T03:00:57.356Z,9.60
2019-03-21T03:03:25.889Z,9.60
2019-03-21T03:05:54.585Z,9.60
2019-03-21T03:08:23.241Z,9.60
2019-03-21T03:10:56.753Z,9.60
2019-03-21T03:13:25.596Z,9.60
2019-03-21T03:15:54.233Z,9.60
2019-03-21T03:18:25.049Z,9.60
2019-03-21T03:20:53.643Z,9.60
2019-03-21T03:23:22.214Z,9.60
2019-03-21T03:25:51.509Z,9.60
2019-03-21T03:28:28.377Z,9.60
2019-03-21T03:30:58.782Z,9.50
2019-03-21T03:33:27.996Z,9.50
2019-03-21T03:35:56.583Z,9.50
2019-03-21T03:38:25.167Z,9.50
2019-03-21T03:41:04.932Z,9.40
2019-03-21T03:43:33.504Z,9.50
2019-03-21T03:46:02.082Z,9.50
2019-03-21T03:48:30.711Z,9.40
2019-03-21T03:50:59.605Z,9.40
2019-03-21T03:53:28.378Z,9.40
2019-03-21T03:55:56.963Z,9.40
2019-03-21T03:58:33.689Z,9.40
2019-03-21T04:01:02.254Z,9.50
2019-03-21T04:03:30.857Z,9.50
2019-03-21T04:05:59.476Z,9.50
2019-03-21T04:08:29.605Z,9.50
2019-03-21T04:10:58.651Z,9.50
2019-03-21T04:13:27.230Z,9.50
2019-03-21T04:15:55.816Z,9.40
2019-03-21T04:18:25.544Z,9.40
2019-03-21T04:21:06.763Z,9.40
2019-03-21T04:23:35.362Z,9.40
2019-03-21T04:26:07.329Z,9.40
2019-03-21T04:28:36.005Z,9.40
2019-03-21T04:31:04.566Z,9.50
2019-03-21T04:33:33.148Z,9.50
2019-03-21T04:36:01.719Z,9.50
2019-03-21T04:38:30.349Z,9.50
2019-03-21T04:40:58.930Z,9.40
2019-03-21T04:43:27.526Z,9.40
2019-03-21T04:46:03.465Z,9.50
2019-03-21T04:48:26.331Z,9.40
2019-03-21T04:50:54.911Z,9.40
2019-03-21T04:53:23.495Z,9.40
2019-03-21T04:55:52.099Z,9.40
2019-03-21T04:58:20.683Z,9.40
2019-03-21T05:00:57.192Z,9.40
2019-03-21T05:03:31.062Z,9.40
2019-03-21T05:05:59.618Z,9.50
2019-03-21T05:08:28.226Z,9.50
2019-03-21T05:10:56.819Z,9.50
2019-03-21T05:13:25.460Z,9.50
2019-03-21T05:15:54.800Z,9.40
2019-03-21T05:18:29.506Z,9.50
2019-03-21T05:20:59.327Z,9.50
2019-03-21T05:23:27.925Z,9.50
2019-03-21T05:25:56.488Z,9.40
2019-03-21T05:28:25.491Z,9.50
2019-03-21T05:30:56.704Z,9.50
2019-03-21T05:33:25.297Z,9.40
2019-03-21T05:35:54.048Z,9.40
2019-03-21T05:38:25.189Z,9.50
2019-03-21T05:40:53.753Z,9.50
2019-03-21T05:43:34.058Z,9.50
2019-03-21T05:46:02.623Z,9.60
2019-03-21T05:48:32.090Z,9.50
2019-03-21T05:51:00.649Z,9.50
2019-03-21T05:53:29.628Z,9.50
2019-03-21T05:55:58.255Z,9.60
2019-03-21T05:58:26.908Z,9.60
2019-03-21T06:01:07.254Z,9.60
2019-03-21T06:03:49.691Z,9.60
2019-03-21T06:06:33.213Z,9.60
2019-03-21T06:09:01.838Z,9.50
2019-03-21T06:11:30.802Z,9.60
2019-03-21T06:13:59.428Z,9.60
2019-03-21T06:16:37.224Z,9.60
2019-03-21T06:19:14.106Z,9.60
2019-03-21T06:22:09.859Z,9.60
2019-03-21T06:24:56.760Z,9.70
2019-03-21T06:27:27.576Z,9.70
2019-03-21T06:29:56.776Z,9.70
2019-03-21T06:32:27.336Z,9.60
2019-03-21T06:34:57.294Z,9.70
2019-03-21T06:37:28.721Z,9.70
2019-03-21T06:39:56.942Z,9.80
2019-03-21T06:42:27.208Z,9.80
2019-03-21T06:44:55.825Z,9.80
2019-03-21T06:47:24.365Z,9.90
2019-03-21T06:49:53.053Z,9.80
2019-03-21T06:52:21.644Z,9.80
2019-03-21T06:54:50.234Z,9.80
2019-03-21T06:57:18.821Z,9.80
2019-03-21T06:59:47.414Z,9.80
2019-03-21T07:02:15.990Z,9.80
2019-03-21T07:04:44.589Z,9.90
2019-03-21T07:07:13.496Z,9.90
2019-03-21T07:09:42.484Z,9.90
2019-03-21T07:12:11.099Z,9.90
2019-03-21T07:14:40.035Z,9.90
2019-03-21T07:17:08.647Z,9.90
2019-03-21T07:19:37.392Z,9.90
2019-03-21T07:22:06.006Z,9.90
2019-03-21T07:24:37.672Z,9.90
2019-03-21T07:27:06.352Z,9.90
2019-03-21T07:29:34.936Z,9.90
2019-03-21T07:32:03.549Z,10.00
2019-03-21T07:34:32.139Z,9.90
2019-03-21T07:37:00.753Z,9.90
2019-03-21T07:39:29.341Z,9.90
2019-03-21T07:41:57.963Z,10.00
2019-03-21T07:44:26.997Z,10.00
2019-03-21T07:46:55.635Z,9.90
2019-03-21T07:49:24.282Z,9.90
2019-03-21T07:51:53.073Z,10.00
2019-03-21T07:54:22.018Z,10.00
2019-03-21T07:56:50.693Z,10.00
2019-03-21T07:59:19.650Z,10.00
2019-03-21T08:01:48.324Z,9.90
2019-03-21T08:04:16.903Z,10.00
2019-03-21T08:06:45.516Z,10.00
2019-03-21T08:09:14.094Z,10.10
2019-03-21T08:11:42.791Z,10.00
2019-03-21T08:14:11.359Z,10.00
2019-03-21T08:16:39.976Z,10.00
2019-03-21T08:19:08.548Z,10.00
2019-03-21T08:21:37.146Z,10.10
2019-03-21T08:24:05.728Z,10.10
2019-03-21T08:26:34.362Z,10.10
2019-03-21T08:29:02.947Z,10.10
2019-03-21T08:31:31.561Z,10.10
2019-03-21T08:34:00.129Z,10.20
2019-03-21T08:36:28.748Z,10.20
2019-03-21T08:38:57.323Z,10.20
2019-03-21T08:41:25.919Z,10.20
2019-03-21T08:43:54.906Z,10.30
2019-03-21T08:46:23.477Z,10.30
2019-03-21T08:48:52.074Z,10.40
2019-03-21T08:51:20.644Z,10.40
2019-03-21T08:53:49.263Z,10.40
2019-03-21T08:56:17.866Z,10.40
2019-03-21T08:58:46.805Z,10.50
2019-03-21T09:01:15.392Z,10.60
2019-03-21T09:03:44.080Z,10.60
2019-03-21T09:06:12.694Z,10.60
2019-03-21T09:08:41.678Z,10.60
2019-03-21T09:11:10.301Z,10.70
2019-03-21T09:13:38.895Z,10.80
2019-03-21T09:16:07.486Z,10.90
2019-03-21T09:18:36.391Z,10.90
2019-03-21T09:21:05.399Z,10.90
2019-03-21T09:23:34.011Z,10.90
2019-03-21T09:26:02.603Z,10.90
2019-03-21T09:28:31.215Z,10.90
2019-03-21T09:31:00.263Z,10.90
2019-03-21T09:33:28.888Z,10.90
2019-03-21T09:35:57.467Z,10.90
2019-03-21T09:38:26.073Z,10.90
2019-03-21T09:40:54.729Z,10.90
2019-03-21T09:43:23.335Z,10.90
2019-03-21T09:45:52.349Z,10.90
2019-03-21T09:48:20.956Z,10.90
2019-03-21T09:50:49.751Z,11.00
2019-03-21T09:53:18.341Z,10.90
2019-03-21T09:55:46.990Z,10.90
2019-03-21T09:58:15.951Z,10.90
2019-03-21T10:00:44.903Z,11.00
2019-03-21T10:03:13.797Z,11.10
2019-03-21T10:05:42.497Z,11.20
2019-03-21T10:08:11.488Z,11.20
2019-03-21T10:10:40.103Z,11.20
2019-03-21T10:13:08.677Z,11.30
2019-03-21T10:15:37.299Z,11.30
2019-03-21T10:18:06.201Z,11.30
2019-03-21T10:20:34.813Z,11.30
2019-03-21T10:23:03.474Z,11.40
2019-03-21T10:25:32.503Z,11.40
2019-03-21T10:28:01.114Z,11.50
2019-03-21T10:30:38.816Z,11.50
2019-03-21T10:33:09.501Z,11.50
2019-03-21T10:35:38.169Z,11.60
2019-03-21T10:38:07.388Z,11.70
2019-03-21T10:40:36.463Z,11.80
2019-03-21T10:43:06.069Z,11.80
2019-03-21T10:45:35.061Z,11.70
2019-03-21T10:48:23.629Z,11.70
2019-03-21T10:50:52.244Z,11.70
2019-03-21T10:53:20.874Z,11.80
2019-03-21T10:55:49.479Z,11.70
2019-03-21T10:58:18.139Z,11.70
2019-03-21T11:00:46.752Z,11.60
2019-03-21T11:03:15.323Z,11.70
2019-03-21T11:05:44.305Z,11.70
2019-03-21T11:08:12.893Z,11.70
2019-03-21T11:10:41.469Z,11.70
2019-03-21T11:13:10.143Z,11.70
2019-03-21T11:15:38.722Z,11.70
2019-03-21T11:18:07.465Z,11.80
2019-03-21T11:20:37.544Z,11.80
2019-03-21T11:23:06.841Z,11.90
2019-03-21T11:25:35.424Z,11.80
2019-03-21T11:28:04.356Z,11.80
2019-03-21T11:30:35.087Z,11.80
2019-03-21T11:33:03.957Z,11.90
2019-03-21T11:35:33.241Z,11.80
2019-03-21T11:38:02.060Z,11.80
2019-03-21T11:40:30.664Z,11.90
2019-03-21T11:42:59.719Z,11.80
2019-03-21T11:45:30.062Z,11.80
2019-03-21T11:47:59.973Z,11.80
2019-03-21T11:50:29.135Z,11.70
2019-03-21T11:52:57.738Z,11.70
2019-03-21T11:55:26.315Z,11.70
2019-03-21T11:57:54.988Z,11.70
2019-03-21T12:00:23.553Z,11.80
2019-03-21T12:02:52.158Z,11.90
2019-03-21T12:05:20.799Z,11.90
2019-03-21T12:07:49.412Z,11.80
2019-03-21T12:10:18.050Z,11.80
2019-03-21T12:12:46.666Z,11.80
2019-03-21T12:15:15.716Z,11.80
2019-03-21T12:17:44.566Z,11.80
2019-03-21T12:20:16.052Z,11.80
2019-03-21T12:22:47.172Z,11.70
2019-03-21T12:25:15.250Z,11.80
2019-03-21T12:27:43.869Z,11.70
2019-03-21T12:30:15.527Z,11.70
2019-03-21T12:32:44.150Z,11.70
2019-03-21T12:35:12.715Z,11.70
2019-03-21T12:37:41.332Z,11.80
2019-03-21T12:40:10.126Z,11.80
2019-03-21T12:42:38.731Z,11.80
2019-03-21T12:45:09.836Z,11.90
2019-03-21T12:47:38.437Z,11.90
2019-03-21T12:50:09.075Z,11.80
2019-03-21T12:52:41.589Z,12.00
2019-03-21T12:55:08.071Z,12.00
2019-03-21T12:57:37.051Z,12.00
2019-03-21T13:00:08.456Z,12.00
2019-03-21T13:02:37.076Z,12.00
2019-03-21T13:05:07.693Z,12.00
2019-03-21T13:07:36.294Z,12.10
2019-03-21T13:10:08.162Z,12.10
2019-03-21T13:12:36.765Z,12.20
2019-03-21T13:17:34.288Z,12.20
2019-03-21T13:20:03.142Z,12.20
2019-03-21T13:22:31.720Z,12.20
2019-03-21T13:25:00.404Z,12.20
2019-03-21T13:27:29.378Z,12.20
2019-03-21T13:29:58.247Z,12.20
2019-03-21T13:32:26.843Z,12.20
2019-03-21T13:34:55.461Z,12.10
2019-03-21T13:37:24.040Z,12.20
2019-03-21T13:39:52.650Z,12.30
2019-03-21T13:42:21.237Z,12.20
2019-03-21T13:44:49.834Z,12.30
2019-03-21T13:47:18.418Z,12.30
2019-03-21T13:49:47.019Z,12.30
2019-03-21T13:52:15.593Z,12.30
2019-03-21T13:54:44.189Z,12.30
2019-03-21T13:57:12.788Z,12.30
2019-03-21T13:59:41.393Z,12.30
2019-03-21T14:02:09.977Z,12.30
2019-03-21T14:04:38.655Z,12.30
2019-03-21T14:07:07.246Z,12.40
2019-03-21T14:09:36.129Z,12.40
2019-03-21T14:12:05.271Z,12.50
2019-03-21T14:14:33.869Z,12.50
2019-03-21T14:17:02.518Z,12.60
2019-03-21T14:19:31.127Z,12.60
2019-03-21T14:21:59.719Z,12.70
2019-03-21T14:24:28.313Z,12.80
2019-03-21T14:26:56.895Z,12.70
2019-03-21T14:29:25.498Z,12.70
2019-03-21T14:31:54.078Z,12.60
2019-03-21T14:34:22.680Z,12.60
2019-03-21T14:36:51.256Z,12.60
2019-03-21T14:39:19.887Z,12.70
2019-03-21T14:41:48.471Z,12.70
2019-03-21T14:44:17.495Z,12.70
2019-03-21T14:46:46.111Z,12.80
2019-03-21T14:49:14.682Z,12.80
2019-03-21T14:51:43.269Z,12.80
2019-03-21T14:54:11.866Z,12.80
2019-03-21T14:56:40.453Z,12.90
2019-03-21T14:59:09.370Z,13.10
2019-03-21T15:01:40.596Z,13.20
2019-03-21T15:04:08.220Z,13.20
2019-03-21T15:06:36.791Z,13.20
2019-03-21T15:09:06.914Z,13.30
2019-03-21T15:11:36.105Z,13.30
2019-03-21T15:14:04.822Z,13.30
2019-03-21T15:16:33.528Z,13.30
2019-03-21T15:19:02.098Z,13.20
2019-03-21T15:21:30.693Z,13.10
2019-03-21T15:23:59.986Z,13.10
2019-03-21T15:26:28.664Z,13.20
2019-03-21T15:28:57.259Z,13.30
2019-03-21T15:31:25.878Z,13.20
2019-03-21T15:33:54.446Z,13.20
2019-03-21T15:36:23.098Z,13.10
2019-03-21T15:38:51.688Z,13.10
2019-03-21T15:41:20.298Z,13.20
2019-03-21T15:43:48.877Z,13.20
2019-03-21T15:46:17.878Z,13.20
2019-03-21T15:48:46.451Z,13.30
2019-03-21T15:51:15.063Z,13.30
2019-03-21T15:53:54.576Z,13.30
2019-03-21T15:56:14.474Z,13.30
2019-03-21T15:58:43.049Z,13.20
2019-03-21T16:01:11.646Z,13.20
2019-03-21T16:03:40.537Z,13.10
2019-03-21T16:06:09.136Z,13.20
2019-03-21T16:08:37.710Z,13.20
2019-03-21T16:11:06.318Z,13.30
2019-03-21T16:13:34.890Z,13.30
2019-03-21T16:16:03.926Z,13.40
2019-03-21T16:18:32.502Z,13.40
2019-03-21T16:21:01.108Z,13.50
2019-03-21T16:23:30.025Z,13.60
2019-03-21T16:25:58.629Z,13.60
2019-03-21T16:28:27.215Z,13.60
2019-03-21T16:30:56.219Z,13.60
2019-03-21T16:33:24.815Z,13.60
2019-03-21T16:35:54.011Z,13.60
2019-03-21T16:38:22.586Z,13.50
2019-03-21T16:40:51.197Z,13.40
2019-03-21T16:43:20.059Z,13.40
2019-03-21T16:45:48.669Z,13.40
2019-03-21T16:48:17.245Z,13.30
2019-03-21T16:50:45.815Z,13.30
2019-03-21T16:53:14.426Z,13.30
2019-03-21T16:55:42.989Z,12.80
2019-03-21T16:58:11.981Z,13.20
2019-03-21T17:00:40.726Z,13.00
2019-03-21T17:03:09.655Z,13.00
2019-03-21T17:05:38.226Z,12.90
2019-03-21T17:08:11.451Z,12.90
2019-03-21T17:10:37.095Z,12.80
2019-03-21T17:13:06.463Z,12.70
2019-03-21T17:15:36.247Z,12.60
2019-03-21T17:18:05.153Z,12.50
2019-03-21T17:20:33.751Z,12.50
2019-03-21T17:23:02.629Z,12.40
2019-03-21T17:25:31.703Z,12.30
2019-03-21T17:28:00.340Z,12.20
2019-03-21T17:30:29.305Z,12.10
2019-03-21T17:32:57.913Z,12.00
2019-03-21T17:35:26.478Z,12.00
2019-03-21T17:37:55.106Z,11.90
2019-03-21T17:40:23.687Z,11.90
2019-03-21T17:42:52.298Z,11.80
2019-03-21T17:45:20.877Z,11.80
2019-03-21T17:47:49.551Z,11.80
2019-03-21T17:50:19.059Z,11.80
2019-03-21T17:52:48.410Z,11.70
2019-03-21T17:55:17.629Z,11.70
2019-03-21T17:57:46.203Z,11.70
2019-03-21T18:00:24.343Z,11.70
2019-03-21T18:02:53.039Z,11.70
2019-03-21T18:05:21.712Z,11.70
2019-03-21T18:07:50.306Z,11.70
2019-03-21T18:10:29.653Z,11.70
2019-03-21T18:12:58.582Z,11.70
2019-03-21T18:15:27.976Z,11.60
2019-03-21T18:17:56.751Z,11.60
2019-03-21T18:20:25.499Z,11.50
2019-03-21T18:22:54.667Z,11.50
2019-03-21T18:25:23.227Z,11.50
2019-03-21T18:27:51.967Z,11.50
2019-03-21T18:30:20.621Z,11.50
2019-03-21T18:32:49.609Z,11.40
2019-03-21T18:35:18.326Z,11.40
2019-03-21T18:37:46.932Z,11.40
2019-03-21T18:40:15.586Z,11.30
2019-03-21T18:42:44.545Z,11.20
2019-03-21T18:45:15.263Z,11.20
2019-03-21T18:47:43.927Z,11.20
2019-03-21T18:50:14.445Z,11.20
2019-03-21T18:52:43.101Z,11.10
2019-03-21T18:55:12.123Z,11.10
2019-03-21T18:57:40.738Z,11.10
2019-03-21T19:00:19.096Z,11.10
2019-03-21T19:02:47.755Z,11.10
2019-03-21T19:05:16.519Z,11.10
2019-03-21T19:07:45.222Z,11.10
2019-03-21T19:10:15.639Z,11.00
2019-03-21T19:12:44.421Z,10.90
2019-03-21T19:15:16.271Z,10.90
2019-03-21T19:17:44.855Z,10.80
2019-03-21T19:20:16.446Z,10.60
2019-03-21T19:22:45.030Z,10.50
2019-03-21T19:25:19.076Z,10.40
2019-03-21T19:27:44.757Z,10.30
2019-03-21T19:30:21.387Z,10.20
2019-03-21T19:32:49.964Z,10.20
2019-03-21T19:35:18.999Z,10.20
2019-03-21T19:37:48.106Z,10.10
2019-03-21T19:40:18.660Z,10.10
2019-03-21T19:42:47.247Z,10.00
2019-03-21T19:45:20.062Z,10.00
2019-03-21T19:47:48.652Z,9.90
2019-03-21T19:50:23.609Z,9.90
2019-03-21T19:52:52.532Z,9.90
2019-03-21T19:55:30.696Z,9.90
2019-03-21T19:57:51.756Z,10.00
2019-03-21T20:00:22.008Z,9.80
2019-03-21T20:02:51.208Z,9.70
2019-03-21T20:05:19.828Z,9.60
2019-03-21T20:08:07.736Z,9.60
2019-03-21T20:10:36.505Z,9.50
2019-03-21T20:13:05.164Z,9.50
2019-03-21T20:15:33.852Z,9.40
2019-03-21T20:18:02.423Z,9.30
2019-03-21T20:20:31.202Z,9.40
2019-03-21T20:22:59.897Z,9.30
2019-03-21T20:25:28.518Z,9.30
2019-03-21T20:27:57.084Z,9.20
2019-03-21T20:30:25.691Z,9.10
2019-03-21T20:32:54.256Z,9.10
2019-03-21T20:35:22.861Z,9.00
2019-03-21T20:37:51.466Z,9.00
2019-03-21T20:40:20.648Z,9.00
2019-03-21T20:42:49.322Z,8.90
2019-03-21T20:45:19.252Z,8.90
2019-03-21T20:47:47.885Z,8.80
2019-03-21T20:50:17.423Z,8.80
2019-03-21T20:52:46.066Z,8.80
2019-03-21T20:55:14.735Z,8.80
2019-03-21T20:57:43.390Z,8.80
2019-03-21T21:00:20.834Z,8.70
2019-03-21T21:02:49.857Z,8.70
2019-03-21T21:05:18.768Z,8.60
2019-03-21T21:07:48.964Z,8.60
2019-03-21T21:10:17.670Z,8.60
2019-03-21T21:12:46.385Z,8.60
2019-03-21T21:15:17.132Z,8.60
2019-03-21T21:17:45.654Z,8.60
2019-03-21T21:20:17.975Z,8.60
2019-03-21T21:22:46.535Z,8.60
2019-03-21T21:25:15.227Z,8.60
2019-03-21T21:27:49.265Z,8.60
2019-03-21T21:30:20.422Z,8.60
2019-03-21T21:32:48.994Z,8.60
2019-03-21T21:35:17.648Z,8.70
2019-03-21T21:37:46.303Z,8.70
2019-03-21T21:40:16.676Z,8.70
2019-03-21T21:42:45.461Z,8.60
2019-03-21T21:45:16.684Z,8.60
2019-03-21T21:47:45.599Z,8.50
2019-03-21T21:50:15.576Z,8.50
2019-03-21T21:52:44.313Z,8.40
2019-03-21T21:55:13.128Z,8.40
2019-03-21T21:57:41.720Z,8.30
2019-03-21T22:00:18.966Z,8.30
2019-03-21T22:02:47.633Z,8.30
2019-03-21T22:05:16.313Z,8.20
2019-03-21T22:07:46.035Z,8.20
2019-03-21T22:10:14.754Z,8.20
2019-03-21T22:12:43.405Z,8.20
2019-03-21T22:15:13.844Z,8.10
2019-03-21T22:17:42.463Z,8.20
2019-03-21T22:20:17.493Z,8.10
2019-03-21T22:22:46.256Z,8.10
2019-03-21T22:25:15.246Z,8.10
2019-03-21T22:27:43.952Z,8.10
2019-03-21T22:30:15.540Z,8.00
2019-03-21T22:32:44.204Z,8.00
2019-03-21T22:35:12.943Z,8.00
2019-03-21T22:37:41.537Z,8.00
2019-03-21T22:40:12.642Z,8.00
2019-03-21T22:42:41.358Z,7.90
2019-03-21T22:45:12.261Z,7.90
2019-03-21T22:47:41.769Z,8.00
2019-03-21T22:50:14.947Z,8.00
2019-03-21T22:52:43.635Z,7.90
2019-03-21T22:55:12.782Z,7.80
2019-03-21T22:57:41.397Z,7.80
2019-03-21T23:00:24.686Z,7.80
2019-03-21T23:02:53.270Z,7.80
2019-03-21T23:05:21.989Z,7.90
2019-03-21T23:07:50.555Z,7.80
2019-03-21T23:10:19.368Z,7.80
2019-03-21T23:12:47.974Z,7.80
2019-03-21T23:15:16.566Z,7.90
2019-03-21T23:17:45.197Z,7.90
2019-03-21T23:20:15.591Z,7.90
2019-03-21T23:22:44.691Z,7.90
2019-03-21T23:25:16.508Z,7.80
2019-03-21T23:27:44.848Z,7.80
2019-03-21T23:30:16.297Z,7.70
2019-03-21T23:32:44.950Z,7.60
2019-03-21T23:35:13.689Z,7.60
2019-03-21T23:37:42.342Z,7.50
2019-03-21T23:40:12.374Z,7.50
2019-03-21T23:42:42.494Z,7.40
2019-03-21T23:45:12.207Z,7.40
2019-03-21T23:47:42.255Z,7.40
2019-03-21T23:50:12.860Z,7.40
2019-03-21T23:52:41.472Z,7.30
2019-03-21T23:55:13.269Z,7.40
2019-03-21T23:57:41.861Z,7.40
